createdAt,value
2017-11-30T00:00:32.985Z,20.93
2017-11-30T00:01:32.964Z,20.67
2017-11-30T00:02:32.951Z,20.43
2017-11-30T00:03:32.962Z,20.54
2017-11-30T00:04:33.673Z,20.86
2017-11-30T00:05:32.918Z,20.73
2017-11-30T00:06:32.913Z,21.51
2017-11-30T00:07:32.915Z,21.84
2017-11-30T00:08:32.907Z,20.93
2017-11-30T00:09:32.895Z,20.54
2017-11-30T00:10:32.871Z,21.46
2017-11-30T00:11:32.856Z,21.70
2017-11-30T00:12:32.855Z,21.78
2017-11-30T00:13:32.841Z,21.45
2017-11-30T00:14:32.831Z,21.50
2017-11-30T00:15:32.822Z,22.04
2017-11-30T00:16:32.806Z,21.92
2017-11-30T00:17:32.801Z,21.66
2017-11-30T00:18:32.792Z,21.57
2017-11-30T00:19:32.778Z,22.08
2017-11-30T00:20:32.768Z,21.54
2017-11-30T00:21:32.755Z,22.19
2017-11-30T00:22:32.746Z,22.19
2017-11-30T00:23:32.747Z,22.62
2017-11-30T00:24:32.727Z,21.84
2017-11-30T00:25:32.717Z,22.34
2017-11-30T00:26:32.703Z,22.33
2017-11-30T00:27:32.694Z,21.88
2017-11-30T00:28:32.681Z,22.37
2017-11-30T00:29:33.194Z,22.37
2017-11-30T00:30:33.190Z,22.75
2017-11-30T00:31:32.660Z,22.32
2017-11-30T00:32:32.647Z,22.78
2017-11-30T00:33:32.634Z,22.58
2017-11-30T00:34:32.625Z,22.85
2017-11-30T00:34:44.622Z,0.90
2017-11-30T00:36:32.603Z,22.92
2017-11-30T00:37:32.602Z,23.42
2017-11-30T00:38:32.581Z,22.62
2017-11-30T00:39:32.571Z,22.76
2017-11-30T00:40:32.581Z,23.09
2017-11-30T00:41:32.549Z,23.70
2017-11-30T00:42:32.544Z,23.32
2017-11-30T00:43:32.563Z,23.02
2017-11-30T00:44:32.534Z,23.34
2017-11-30T00:45:32.510Z,23.77
2017-11-30T00:46:33.202Z,24.68
2017-11-30T00:47:32.485Z,24.47
2017-11-30T00:48:32.480Z,24.66
2017-11-30T00:49:32.479Z,24.34
2017-11-30T00:50:32.454Z,24.38
2017-11-30T00:51:32.451Z,25.56
2017-11-30T00:52:32.441Z,26.73
2017-11-30T00:53:32.425Z,25.43
2017-11-30T00:54:32.426Z,26.09
2017-11-30T00:55:32.408Z,26.55
2017-11-30T00:56:32.411Z,26.40
2017-11-30T00:57:32.391Z,26.76
2017-11-30T00:58:32.373Z,25.87
2017-11-30T00:59:33.200Z,26.44
2017-11-30T01:00:35.209Z,25.87
2017-11-30T01:01:32.351Z,25.58
2017-11-30T01:02:32.329Z,25.54
2017-11-30T01:03:32.345Z,26.59
2017-11-30T01:04:32.317Z,25.90
2017-11-30T01:05:32.315Z,25.29
2017-11-30T01:06:32.306Z,25.62
2017-11-30T01:07:32.288Z,26.38
2017-11-30T01:08:32.322Z,25.94
2017-11-30T01:09:32.263Z,27.07
2017-11-30T01:10:32.257Z,27.19
2017-11-30T01:11:32.255Z,27.03
2017-11-30T01:12:32.224Z,26.90
2017-11-30T01:13:32.244Z,27.26
2017-11-30T01:14:32.222Z,27.36
2017-11-30T01:15:35.194Z,27.26
2017-11-30T01:16:32.188Z,27.17
2017-11-30T01:17:32.180Z,27.60
2017-11-30T01:18:32.176Z,26.95
2017-11-30T01:19:32.177Z,27.92
2017-11-30T01:20:32.694Z,27.28
2017-11-30T01:21:32.146Z,28.22
2017-11-30T01:22:32.133Z,29.00
2017-11-30T01:23:32.130Z,28.53
2017-11-30T01:23:44.118Z,1.13
2017-11-30T01:25:32.104Z,27.05
2017-11-30T01:26:32.094Z,28.70
2017-11-30T01:27:32.080Z,29.53
2017-11-30T01:28:32.064Z,28.83
2017-11-30T01:29:32.059Z,28.88
2017-11-30T01:30:32.037Z,29.16
2017-11-30T01:31:32.037Z,29.82
2017-11-30T01:32:32.709Z,29.14
2017-11-30T01:33:32.016Z,29.06
2017-11-30T01:34:32.001Z,30.71
2017-11-30T01:35:31.991Z,29.81
2017-11-30T01:36:31.985Z,30.41
2017-11-30T01:37:31.965Z,29.84
2017-11-30T01:38:32.718Z,30.17
2017-11-30T01:39:31.958Z,30.37
2017-11-30T01:40:31.945Z,29.95
2017-11-30T01:41:31.929Z,30.88
2017-11-30T01:42:31.916Z,29.98
2017-11-30T01:43:31.920Z,30.15
2017-11-30T01:44:31.889Z,31.26
2017-11-30T01:45:31.886Z,29.92
2017-11-30T01:46:31.878Z,30.38
2017-11-30T01:47:31.870Z,30.69
2017-11-30T01:48:31.860Z,31.72
2017-11-30T01:49:31.839Z,31.98
2017-11-30T01:50:31.873Z,31.53
2017-11-30T01:51:31.821Z,31.61
2017-11-30T01:52:31.825Z,32.02
2017-11-30T01:53:31.798Z,32.82
2017-11-30T01:54:31.796Z,31.82
2017-11-30T01:55:31.777Z,31.31
2017-11-30T01:56:31.787Z,32.36
2017-11-30T01:57:31.770Z,32.87
2017-11-30T01:58:31.751Z,32.29
2017-11-30T01:59:31.740Z,31.70
2017-11-30T02:00:31.723Z,32.42
2017-11-30T02:01:31.731Z,32.21
2017-11-30T02:02:31.710Z,30.72
2017-11-30T02:03:31.709Z,32.74
2017-11-30T02:04:31.693Z,33.25
2017-11-30T02:05:31.679Z,32.46
2017-11-30T02:06:31.682Z,33.98
2017-11-30T02:07:31.673Z,34.08
2017-11-30T02:08:31.647Z,33.71
2017-11-30T02:09:31.632Z,33.90
2017-11-30T02:10:31.627Z,34.57
2017-11-30T02:11:31.606Z,33.63
2017-11-30T02:12:31.600Z,34.19
2017-11-30T02:13:31.596Z,33.55
2017-11-30T02:14:31.574Z,33.70
2017-11-30T02:15:31.569Z,32.96
2017-11-30T02:16:31.567Z,33.80
2017-11-30T02:17:31.547Z,34.17
2017-11-30T02:18:31.550Z,33.84
2017-11-30T02:19:31.534Z,33.04
2017-11-30T02:20:31.513Z,33.50
2017-11-30T02:21:31.513Z,35.21
2017-11-30T02:22:31.498Z,34.20
2017-11-30T02:23:31.484Z,35.88
2017-11-30T02:24:31.458Z,35.15
2017-11-30T02:25:31.461Z,34.40
2017-11-30T02:26:31.459Z,34.97
2017-11-30T02:27:31.435Z,35.06
2017-11-30T02:28:31.427Z,35.80
2017-11-30T02:29:31.407Z,34.77
2017-11-30T02:30:31.398Z,36.64
2017-11-30T02:31:31.381Z,38.84
2017-11-30T02:32:31.374Z,36.77
2017-11-30T02:33:31.375Z,38.28
2017-11-30T02:34:31.371Z,37.37
2017-11-30T02:35:31.349Z,37.72
2017-11-30T02:36:31.349Z,36.82
2017-11-30T02:37:31.339Z,37.00
2017-11-30T02:38:31.312Z,37.88
2017-11-30T02:39:32.226Z,40.26
2017-11-30T02:40:31.294Z,39.47
2017-11-30T02:41:31.277Z,37.66
2017-11-30T02:42:31.262Z,37.60
2017-11-30T02:43:31.262Z,38.43
2017-11-30T02:44:31.236Z,38.39
2017-11-30T02:45:31.236Z,39.29
2017-11-30T02:46:31.221Z,39.66
2017-11-30T02:47:31.210Z,39.95
2017-11-30T02:48:31.207Z,42.27
2017-11-30T02:49:31.194Z,42.88
2017-11-30T02:50:31.174Z,40.00
2017-11-30T02:51:31.171Z,38.34
2017-11-30T02:52:31.155Z,38.54
2017-11-30T02:53:31.132Z,39.07
2017-11-30T02:54:31.119Z,36.78
2017-11-30T02:55:31.116Z,37.55
2017-11-30T02:56:31.107Z,38.70
2017-11-30T02:57:31.087Z,38.02
2017-11-30T02:58:31.071Z,36.90
2017-11-30T02:59:31.069Z,37.87
2017-11-30T03:00:31.056Z,38.39
2017-11-30T03:01:31.065Z,39.91
2017-11-30T03:02:31.038Z,39.51
2017-11-30T03:03:31.018Z,39.30
2017-11-30T03:04:31.002Z,37.04
2017-11-30T03:05:30.989Z,35.87
2017-11-30T03:06:30.978Z,35.31
2017-11-30T03:07:30.978Z,35.65
2017-11-30T03:08:30.976Z,35.08
2017-11-30T03:09:30.966Z,34.81
2017-11-30T03:10:30.930Z,34.58
2017-11-30T03:11:30.927Z,34.34
2017-11-30T03:12:30.910Z,34.52
2017-11-30T03:13:30.906Z,35.25
2017-11-30T03:14:30.890Z,33.30
2017-11-30T03:15:30.883Z,33.37
2017-11-30T03:16:30.863Z,33.62
2017-11-30T03:17:30.855Z,32.68
2017-11-30T03:18:30.846Z,33.76
2017-11-30T03:19:30.841Z,33.76
2017-11-30T03:20:30.818Z,34.22
2017-11-30T03:21:33.725Z,34.19
2017-11-30T03:22:30.794Z,34.01
2017-11-30T03:23:30.798Z,34.42
2017-11-30T03:24:30.792Z,33.80
2017-11-30T03:25:30.768Z,32.75
2017-11-30T03:26:30.758Z,32.65
2017-11-30T03:27:30.741Z,32.83
2017-11-30T03:28:30.732Z,33.17
2017-11-30T03:29:30.723Z,33.33
2017-11-30T03:30:30.730Z,35.01
2017-11-30T03:31:30.692Z,34.16
2017-11-30T03:32:30.686Z,34.06
2017-11-30T03:33:30.681Z,35.00
2017-11-30T03:34:30.667Z,33.65
2017-11-30T03:35:30.663Z,35.58
2017-11-30T03:36:30.650Z,35.18
2017-11-30T03:37:31.232Z,34.58
2017-11-30T03:38:30.611Z,34.08
2017-11-30T03:39:30.617Z,33.92
2017-11-30T03:40:30.610Z,34.29
2017-11-30T03:41:30.590Z,34.99
2017-11-30T03:42:30.578Z,33.72
2017-11-30T03:43:30.551Z,34.47
2017-11-30T03:44:30.546Z,33.32
2017-11-30T03:45:30.533Z,33.54
2017-11-30T03:46:30.528Z,32.84
2017-11-30T03:47:30.510Z,33.70
2017-11-30T03:48:30.502Z,33.58
2017-11-30T03:49:30.505Z,34.34
2017-11-30T03:50:30.482Z,34.36
2017-11-30T03:51:30.465Z,33.35
2017-11-30T03:52:30.463Z,33.63
2017-11-30T03:53:30.442Z,34.26
2017-11-30T03:54:30.425Z,33.96
2017-11-30T03:55:30.423Z,34.10
2017-11-30T03:56:30.411Z,32.52
2017-11-30T03:57:30.391Z,33.35
2017-11-30T03:58:30.384Z,32.01
2017-11-30T03:59:30.379Z,33.33
2017-11-30T04:00:30.368Z,33.19
2017-11-30T04:01:30.357Z,32.85
2017-11-30T04:02:30.344Z,33.23
2017-11-30T04:03:30.333Z,33.30
2017-11-30T04:04:30.321Z,33.35
2017-11-30T04:05:30.315Z,32.85
2017-11-30T04:06:30.306Z,33.34
2017-11-30T04:07:30.290Z,33.07
2017-11-30T04:08:30.264Z,33.01
2017-11-30T04:09:30.261Z,31.96
2017-11-30T04:10:30.245Z,32.97
2017-11-30T04:11:30.242Z,32.99
2017-11-30T04:12:30.231Z,32.96
2017-11-30T04:13:30.238Z,32.49
2017-11-30T04:14:30.205Z,32.99
2017-11-30T04:15:30.207Z,31.94
2017-11-30T04:16:30.196Z,31.29
2017-11-30T04:17:30.167Z,30.59
2017-11-30T04:18:30.162Z,31.19
2017-11-30T04:19:30.152Z,32.30
2017-11-30T04:20:30.140Z,31.11
2017-11-30T04:21:30.130Z,31.32
2017-11-30T04:22:30.124Z,31.07
2017-11-30T04:23:30.117Z,31.03
2017-11-30T04:24:30.098Z,30.53
2017-11-30T04:25:30.089Z,30.12
2017-11-30T04:26:30.077Z,30.48
2017-11-30T04:27:30.062Z,29.52
2017-11-30T04:28:30.052Z,29.96
2017-11-30T04:29:30.044Z,30.38
2017-11-30T04:30:30.028Z,30.73
2017-11-30T04:31:30.023Z,31.32
2017-11-30T04:32:30.022Z,30.74
2017-11-30T04:33:30.004Z,30.43
2017-11-30T04:34:29.984Z,30.80
2017-11-30T04:35:29.977Z,31.90
2017-11-30T04:36:29.980Z,30.73
2017-11-30T04:37:29.967Z,31.48
2017-11-30T04:38:29.951Z,31.00
2017-11-30T04:39:29.934Z,30.82
2017-11-30T04:40:29.917Z,31.26
2017-11-30T04:41:29.923Z,32.45
2017-11-30T04:42:29.906Z,31.24
2017-11-30T04:43:29.890Z,30.95
2017-11-30T04:44:29.878Z,30.44
2017-11-30T04:45:29.889Z,31.18
2017-11-30T04:46:29.857Z,31.22
2017-11-30T04:47:29.849Z,31.22
2017-11-30T04:48:29.833Z,31.67
2017-11-30T04:49:29.818Z,31.14
2017-11-30T04:50:29.809Z,30.57
2017-11-30T04:51:29.808Z,29.92
2017-11-30T04:52:29.790Z,30.38
2017-11-30T04:53:29.780Z,29.93
2017-11-30T04:54:29.767Z,30.81
2017-11-30T04:55:29.775Z,30.32
2017-11-30T04:56:29.746Z,31.38
2017-11-30T04:57:29.738Z,31.58
2017-11-30T04:58:29.721Z,32.10
2017-11-30T04:59:29.710Z,31.14
2017-11-30T05:00:29.713Z,31.12
2017-11-30T05:01:29.695Z,31.38
2017-11-30T05:02:29.682Z,31.44
2017-11-30T05:03:29.673Z,30.38
2017-11-30T05:04:29.661Z,30.06
2017-11-30T05:05:29.645Z,30.24
2017-11-30T05:06:29.645Z,30.16
2017-11-30T05:07:29.625Z,30.53
2017-11-30T05:08:29.615Z,30.98
2017-11-30T05:09:29.599Z,32.09
2017-11-30T05:10:29.592Z,30.92
2017-11-30T05:11:29.587Z,30.71
2017-11-30T05:12:29.576Z,31.09
2017-11-30T05:13:29.567Z,30.72
2017-11-30T05:14:29.555Z,31.83
2017-11-30T05:15:29.542Z,31.78
2017-11-30T05:15:41.538Z,1.26
2017-11-30T05:17:29.540Z,31.80
2017-11-30T05:18:29.508Z,31.48
2017-11-30T05:19:38.591Z,32.87
2017-11-30T05:20:29.538Z,33.19
2017-11-30T05:21:40.186Z,32.03
2017-11-30T05:22:52.945Z,31.90
2017-11-30T05:23:38.862Z,31.79
2017-11-30T05:24:38.554Z,33.59
2017-11-30T05:25:38.544Z,32.32
2017-11-30T05:26:38.536Z,32.01
2017-11-30T05:27:38.532Z,31.90
2017-11-30T05:28:38.510Z,31.60
2017-11-30T05:29:38.497Z,32.04
2017-11-30T05:30:47.398Z,32.51
2017-11-30T05:31:38.477Z,32.36
2017-11-30T05:32:38.461Z,31.90
2017-11-30T05:33:38.450Z,32.28
2017-11-30T05:34:38.442Z,33.30
2017-11-30T05:35:38.446Z,33.17
2017-11-30T05:36:38.429Z,33.49
2017-11-30T05:37:38.435Z,33.28
2017-11-30T05:38:38.396Z,33.04
2017-11-30T05:39:38.393Z,32.33
2017-11-30T05:40:38.382Z,33.76
2017-11-30T05:41:38.369Z,33.91
2017-11-30T05:42:38.361Z,32.82
2017-11-30T05:43:38.362Z,33.64
2017-11-30T05:44:38.338Z,33.88
2017-11-30T05:45:38.325Z,33.62
2017-11-30T05:46:38.310Z,34.46
2017-11-30T05:47:38.327Z,33.55
2017-11-30T05:48:38.297Z,32.56
2017-11-30T05:49:38.287Z,33.93
2017-11-30T05:50:38.272Z,34.67
2017-11-30T05:51:38.262Z,32.29
2017-11-30T05:52:38.251Z,32.02
2017-11-30T05:53:38.235Z,32.08
2017-11-30T05:54:38.226Z,31.95
2017-11-30T05:55:38.216Z,33.85
2017-11-30T05:56:38.209Z,34.47
2017-11-30T05:57:38.198Z,34.28
2017-11-30T05:58:38.776Z,32.78
2017-11-30T05:59:38.180Z,33.83
2017-11-30T06:00:38.174Z,33.20
2017-11-30T06:01:38.149Z,32.41
2017-11-30T06:02:38.138Z,32.28
2017-11-30T06:03:38.131Z,31.69
2017-11-30T06:04:38.587Z,32.60
2017-11-30T06:05:38.111Z,31.92
2017-11-30T06:06:38.100Z,33.26
2017-11-30T06:07:38.087Z,32.84
2017-11-30T06:08:38.100Z,32.44
2017-11-30T06:09:38.104Z,33.09
2017-11-30T06:10:38.049Z,32.14
2017-11-30T06:11:38.054Z,32.93
2017-11-30T06:12:38.046Z,32.00
2017-11-30T06:13:38.025Z,31.62
2017-11-30T06:14:38.013Z,32.91
2017-11-30T06:15:37.993Z,32.40
2017-11-30T06:16:38.003Z,32.31
2017-11-30T06:17:37.978Z,30.88
2017-11-30T06:18:37.970Z,31.76
2017-11-30T06:19:37.956Z,32.30
2017-11-30T06:20:37.949Z,32.61
2017-11-30T06:21:37.936Z,32.53
2017-11-30T06:22:37.935Z,31.72
2017-11-30T06:23:37.910Z,31.30
2017-11-30T06:24:37.907Z,30.83
2017-11-30T06:25:37.896Z,32.36
2017-11-30T06:26:37.879Z,32.28
2017-11-30T06:27:37.870Z,31.42
2017-11-30T06:28:37.865Z,30.76
2017-11-30T06:29:37.852Z,31.43
2017-11-30T06:30:37.843Z,33.56
2017-11-30T06:31:37.827Z,33.13
2017-11-30T06:32:37.823Z,33.38
2017-11-30T06:33:37.812Z,33.32
2017-11-30T06:34:37.799Z,33.93
2017-11-30T06:35:37.797Z,32.88
2017-11-30T06:36:37.774Z,34.34
2017-11-30T06:37:37.775Z,33.81
2017-11-30T06:38:37.754Z,33.24
2017-11-30T06:39:38.285Z,33.77
2017-11-30T06:40:37.745Z,33.54
2017-11-30T06:41:37.725Z,34.40
2017-11-30T06:42:37.713Z,34.04
2017-11-30T06:43:37.708Z,34.87
2017-11-30T06:44:37.692Z,35.27
2017-11-30T06:45:37.688Z,34.96
2017-11-30T06:46:37.676Z,35.05
2017-11-30T06:47:37.662Z,34.72
2017-11-30T06:48:37.650Z,34.02
2017-11-30T06:49:37.636Z,33.79
2017-11-30T06:50:37.624Z,34.28
2017-11-30T06:51:37.619Z,33.80
2017-11-30T06:52:37.609Z,34.94
2017-11-30T06:53:37.594Z,35.42
2017-11-30T06:54:37.588Z,34.16
2017-11-30T06:55:37.571Z,34.90
2017-11-30T06:56:37.574Z,35.06
2017-11-30T06:57:37.546Z,33.43
2017-11-30T06:58:37.540Z,33.48
2017-11-30T06:59:37.529Z,33.62
2017-11-30T07:00:37.519Z,33.25
2017-11-30T07:01:37.509Z,33.04
2017-11-30T07:02:37.496Z,34.31
2017-11-30T07:03:37.483Z,32.53
2017-11-30T07:04:37.501Z,32.52
2017-11-30T07:05:37.465Z,33.26
2017-11-30T07:06:37.458Z,32.51
2017-11-30T07:07:37.451Z,31.94
2017-11-30T07:08:37.436Z,32.44
2017-11-30T07:09:37.418Z,32.30
2017-11-30T07:10:37.425Z,32.14
2017-11-30T07:11:37.398Z,31.49
2017-11-30T07:12:37.392Z,30.99
2017-11-30T07:13:37.423Z,30.15
2017-11-30T07:14:37.366Z,31.42
2017-11-30T07:15:37.356Z,31.20
2017-11-30T07:16:37.354Z,30.27
2017-11-30T07:17:37.335Z,31.08
2017-11-30T07:18:37.348Z,30.76
2017-11-30T07:19:38.878Z,31.53
2017-11-30T07:20:37.306Z,32.04
2017-11-30T07:21:37.295Z,31.04
2017-11-30T07:22:37.285Z,30.65
2017-11-30T07:23:37.278Z,30.77
2017-11-30T07:24:37.259Z,31.08
2017-11-30T07:25:37.257Z,31.41
2017-11-30T07:26:37.248Z,31.86
2017-11-30T07:27:37.226Z,30.06
2017-11-30T07:28:37.216Z,30.46
2017-11-30T07:29:37.207Z,32.08
2017-11-30T07:30:37.200Z,31.16
2017-11-30T07:31:37.188Z,32.03
2017-11-30T07:32:37.173Z,32.23
2017-11-30T07:33:37.159Z,33.18
2017-11-30T07:34:37.155Z,33.19
2017-11-30T07:35:37.145Z,33.62
2017-11-30T07:36:37.125Z,33.63
2017-11-30T07:37:37.121Z,33.20
2017-11-30T07:38:37.109Z,33.78
2017-11-30T07:39:37.096Z,32.27
2017-11-30T07:40:37.089Z,32.11
2017-11-30T07:41:37.074Z,31.83
2017-11-30T07:42:37.061Z,32.68
2017-11-30T07:43:37.045Z,32.78
2017-11-30T07:44:37.046Z,30.64
2017-11-30T07:45:37.035Z,29.84
2017-11-30T07:46:37.023Z,30.99
2017-11-30T07:47:37.021Z,31.55
2017-11-30T07:48:37.003Z,35.08
2017-11-30T07:49:37.001Z,36.69
2017-11-30T07:50:36.974Z,31.45
2017-11-30T07:51:36.965Z,29.62
2017-11-30T07:52:36.955Z,30.26
2017-11-30T07:53:36.956Z,29.34
2017-11-30T07:54:36.934Z,29.26
2017-11-30T07:55:36.917Z,28.68
2017-11-30T07:56:36.913Z,28.26
2017-11-30T07:57:36.897Z,28.04
2017-11-30T07:58:36.894Z,28.84
2017-11-30T07:59:36.879Z,29.92
2017-11-30T08:00:36.871Z,28.74
2017-11-30T08:01:36.851Z,27.26
2017-11-30T08:02:36.838Z,28.31
2017-11-30T08:03:36.836Z,28.78
2017-11-30T08:04:36.851Z,28.67
2017-11-30T08:05:36.816Z,28.95
2017-11-30T08:06:36.809Z,30.53
2017-11-30T08:07:36.794Z,30.69
2017-11-30T08:08:36.783Z,29.88
2017-11-30T08:09:36.767Z,32.32
2017-11-30T08:10:36.758Z,31.54
2017-11-30T08:11:36.751Z,31.65
2017-11-30T08:12:36.736Z,32.24
2017-11-30T08:13:36.719Z,32.23
2017-11-30T08:14:36.713Z,31.96
2017-11-30T08:15:36.699Z,30.84
2017-11-30T08:16:36.698Z,30.23
2017-11-30T08:17:36.697Z,31.54
2017-11-30T08:18:37.323Z,31.38
2017-11-30T08:19:36.666Z,31.04
2017-11-30T08:20:36.654Z,31.20
2017-11-30T08:21:36.645Z,30.00
2017-11-30T08:22:36.636Z,30.33
2017-11-30T08:23:36.625Z,31.05
2017-11-30T08:24:36.608Z,31.06
2017-11-30T08:25:36.596Z,31.75
2017-11-30T08:26:36.587Z,31.34
2017-11-30T08:27:36.571Z,30.94
2017-11-30T08:28:36.565Z,30.96
2017-11-30T08:29:36.553Z,30.25
2017-11-30T08:30:36.542Z,30.70
2017-11-30T08:31:36.536Z,31.10
2017-11-30T08:32:36.525Z,30.99
2017-11-30T08:33:36.508Z,30.15
2017-11-30T08:34:36.505Z,30.38
2017-11-30T08:35:36.497Z,30.54
2017-11-30T08:36:36.477Z,30.36
2017-11-30T08:37:36.471Z,30.21
2017-11-30T08:38:36.459Z,30.54
2017-11-30T08:39:36.453Z,29.68
2017-11-30T08:40:36.440Z,30.48
2017-11-30T08:41:36.426Z,30.36
2017-11-30T08:42:36.417Z,29.90
2017-11-30T08:43:36.404Z,29.79
2017-11-30T08:44:36.401Z,29.62
2017-11-30T08:45:36.383Z,29.52
2017-11-30T08:46:36.381Z,29.84
2017-11-30T08:47:36.363Z,29.52
2017-11-30T08:48:36.356Z,28.70
2017-11-30T08:49:36.344Z,28.66
2017-11-30T08:50:36.330Z,28.84
2017-11-30T08:51:36.321Z,29.25
2017-11-30T08:52:36.320Z,29.15
2017-11-30T08:53:36.305Z,28.11
2017-11-30T08:54:36.295Z,27.63
2017-11-30T08:55:36.283Z,29.34
2017-11-30T08:56:36.271Z,27.98
2017-11-30T08:57:36.248Z,28.39
2017-11-30T08:58:36.250Z,27.93
2017-11-30T08:59:36.235Z,27.88
2017-11-30T09:00:36.225Z,27.29
2017-11-30T09:01:36.222Z,27.80
2017-11-30T09:02:36.211Z,27.94
2017-11-30T09:03:36.190Z,28.39
2017-11-30T09:04:36.230Z,27.30
2017-11-30T09:05:36.173Z,27.86
2017-11-30T09:06:36.171Z,28.64
2017-11-30T09:07:36.157Z,27.86
2017-11-30T09:08:36.143Z,28.29
2017-11-30T09:09:36.134Z,28.17
2017-11-30T09:10:36.125Z,28.63
2017-11-30T09:11:36.111Z,27.94
2017-11-30T09:12:36.109Z,27.60
2017-11-30T09:13:36.084Z,27.79
2017-11-30T09:14:36.076Z,27.47
2017-11-30T09:15:36.061Z,26.98
2017-11-30T09:16:36.065Z,27.90
2017-11-30T09:17:36.044Z,27.30
2017-11-30T09:18:36.038Z,27.01
2017-11-30T09:19:36.025Z,27.47
2017-11-30T09:20:36.017Z,27.32
2017-11-30T09:21:36.019Z,26.67
2017-11-30T09:22:36.003Z,27.40
2017-11-30T09:23:35.986Z,25.59
2017-11-30T09:24:35.976Z,25.52
2017-11-30T09:25:35.960Z,25.77
2017-11-30T09:26:35.960Z,26.14
2017-11-30T09:27:35.940Z,27.11
2017-11-30T09:28:35.933Z,25.56
2017-11-30T09:29:35.927Z,25.44
2017-11-30T09:30:35.912Z,24.29
2017-11-30T09:31:35.899Z,24.67
2017-11-30T09:32:35.895Z,25.00
2017-11-30T09:33:35.885Z,24.40
2017-11-30T09:34:35.866Z,25.29
2017-11-30T09:35:35.864Z,24.81
2017-11-30T09:36:35.850Z,25.61
2017-11-30T09:37:35.837Z,25.86
2017-11-30T09:38:35.828Z,24.74
2017-11-30T09:39:35.817Z,23.53
2017-11-30T09:40:35.807Z,24.15
2017-11-30T09:41:35.811Z,24.76
2017-11-30T09:42:35.787Z,24.97
2017-11-30T09:43:35.781Z,24.52
2017-11-30T09:44:35.770Z,25.00
2017-11-30T09:45:35.758Z,24.48
2017-11-30T09:46:35.754Z,24.43
2017-11-30T09:47:35.738Z,23.81
2017-11-30T09:48:35.723Z,23.60
2017-11-30T09:49:35.723Z,24.10
2017-11-30T09:50:35.706Z,24.92
2017-11-30T09:51:35.697Z,25.73
2017-11-30T09:52:35.678Z,26.78
2017-11-30T09:53:35.668Z,25.64
2017-11-30T09:54:35.660Z,26.11
2017-11-30T09:55:35.660Z,27.91
2017-11-30T09:56:35.645Z,27.07
2017-11-30T09:57:35.639Z,26.62
2017-11-30T09:58:35.628Z,26.40
2017-11-30T09:59:35.616Z,26.62
2017-11-30T10:00:35.603Z,26.50
2017-11-30T10:01:35.599Z,25.54
2017-11-30T10:02:35.589Z,26.43
2017-11-30T10:03:35.580Z,25.78
2017-11-30T10:04:35.585Z,25.70
2017-11-30T10:05:35.561Z,25.54
2017-11-30T10:06:35.563Z,26.22
2017-11-30T10:07:35.539Z,25.49
2017-11-30T10:08:35.534Z,26.70
2017-11-30T10:09:35.517Z,27.55
2017-11-30T10:10:35.504Z,27.75
2017-11-30T10:11:35.495Z,26.70
2017-11-30T10:12:35.487Z,26.52
2017-11-30T10:13:35.476Z,27.01
2017-11-30T10:14:35.464Z,27.38
2017-11-30T10:15:35.458Z,27.66
2017-11-30T10:16:35.463Z,28.28
2017-11-30T10:16:47.447Z,1.12
2017-11-30T10:18:35.434Z,28.46
2017-11-30T10:19:35.421Z,28.25
2017-11-30T10:20:35.430Z,27.16
2017-11-30T10:21:35.402Z,28.27
2017-11-30T10:22:35.396Z,26.98
2017-11-30T10:23:36.358Z,27.26
2017-11-30T10:24:35.372Z,26.78
2017-11-30T10:25:35.364Z,26.86
2017-11-30T10:26:35.352Z,26.84
2017-11-30T10:27:35.339Z,26.54
2017-11-30T10:28:35.338Z,26.70
2017-11-30T10:29:35.328Z,26.94
2017-11-30T10:30:35.311Z,28.48
2017-11-30T10:31:35.300Z,26.88
2017-11-30T10:32:35.306Z,27.21
2017-11-30T10:33:35.294Z,27.03
2017-11-30T10:34:35.277Z,26.54
2017-11-30T10:35:35.269Z,25.75
2017-11-30T10:36:35.256Z,25.96
2017-11-30T10:37:35.244Z,25.00
2017-11-30T10:38:35.235Z,23.31
2017-11-30T10:39:35.232Z,22.17
2017-11-30T10:40:35.221Z,21.00
2017-11-30T10:41:35.208Z,21.37
2017-11-30T10:42:35.197Z,20.60
2017-11-30T10:43:35.190Z,19.71
2017-11-30T10:44:35.183Z,20.31
2017-11-30T10:45:35.181Z,20.54
2017-11-30T10:46:35.157Z,19.98
2017-11-30T10:47:35.154Z,19.98
2017-11-30T10:48:35.139Z,20.15
2017-11-30T10:49:35.129Z,19.75
2017-11-30T10:50:35.124Z,19.12
2017-11-30T10:51:35.112Z,18.87
2017-11-30T10:52:35.102Z,19.19
2017-11-30T10:53:35.091Z,19.73
2017-11-30T10:54:35.098Z,19.15
2017-11-30T10:55:35.075Z,19.29
2017-11-30T10:56:35.074Z,18.92
2017-11-30T10:57:35.068Z,19.73
2017-11-30T10:58:35.050Z,19.36
2017-11-30T10:59:35.029Z,19.26
2017-11-30T11:00:35.038Z,18.44
2017-11-30T11:01:35.025Z,18.84
2017-11-30T11:02:35.013Z,18.35
2017-11-30T11:03:35.003Z,17.05
2017-11-30T11:04:34.998Z,16.18
2017-11-30T11:05:34.984Z,15.53
2017-11-30T11:06:34.970Z,15.54
2017-11-30T11:07:34.968Z,15.61
2017-11-30T11:08:34.955Z,15.46
2017-11-30T11:09:34.944Z,16.28
2017-11-30T11:10:34.940Z,16.45
2017-11-30T11:11:34.931Z,16.81
2017-11-30T11:12:34.926Z,17.36
2017-11-30T11:13:34.913Z,16.03
2017-11-30T11:14:34.906Z,16.42
2017-11-30T11:15:34.901Z,16.76
2017-11-30T11:16:34.886Z,14.85
2017-11-30T11:17:34.881Z,13.02
2017-11-30T11:18:34.873Z,12.27
2017-11-30T11:19:34.869Z,12.47
2017-11-30T11:20:34.845Z,11.28
2017-11-30T11:21:34.836Z,10.13
2017-11-30T11:22:34.833Z,10.68
2017-11-30T11:23:34.823Z,9.94
2017-11-30T11:24:34.822Z,9.10
2017-11-30T11:25:34.800Z,9.03
2017-11-30T11:26:34.792Z,9.23
2017-11-30T11:27:34.800Z,9.84
2017-11-30T11:28:34.779Z,9.93
2017-11-30T11:29:34.765Z,10.29
2017-11-30T11:30:34.753Z,10.36
2017-11-30T11:31:34.753Z,9.60
2017-11-30T11:32:34.744Z,9.75
2017-11-30T11:33:34.732Z,9.82
2017-11-30T11:34:34.739Z,9.83
2017-11-30T11:35:34.712Z,10.01
2017-11-30T11:36:34.707Z,10.12
2017-11-30T11:37:34.691Z,9.82
2017-11-30T11:38:34.682Z,9.80
2017-11-30T11:39:34.672Z,9.62
2017-11-30T11:40:34.671Z,9.97
2017-11-30T11:41:34.656Z,10.14
2017-11-30T11:42:34.648Z,9.96
2017-11-30T11:43:34.645Z,10.43
2017-11-30T11:44:34.633Z,10.90
2017-11-30T11:45:34.614Z,10.12
2017-11-30T11:46:34.610Z,9.97
2017-11-30T11:47:34.605Z,10.39
2017-11-30T11:48:34.599Z,10.66
2017-11-30T11:49:34.587Z,10.36
2017-11-30T11:50:34.577Z,9.99
2017-11-30T11:51:34.563Z,10.12
2017-11-30T11:52:34.559Z,10.64
2017-11-30T11:53:34.547Z,11.09
2017-11-30T11:54:34.553Z,10.50
2017-11-30T11:55:34.536Z,9.94
2017-11-30T11:56:34.523Z,10.20
2017-11-30T11:57:34.501Z,10.51
2017-11-30T11:58:34.501Z,10.16
2017-11-30T11:59:34.492Z,10.62
2017-11-30T12:00:34.487Z,9.77
2017-11-30T12:01:34.474Z,8.82
2017-11-30T12:02:34.460Z,7.63
2017-11-30T12:03:34.455Z,7.32
2017-11-30T12:04:34.451Z,7.83
2017-11-30T12:05:34.436Z,7.97
2017-11-30T12:06:34.429Z,7.83
2017-11-30T12:07:34.417Z,7.97
2017-11-30T12:08:34.417Z,7.40
2017-11-30T12:09:34.404Z,7.37
2017-11-30T12:10:34.394Z,7.21
2017-11-30T12:11:34.392Z,6.72
2017-11-30T12:12:34.380Z,6.36
2017-11-30T12:13:34.367Z,6.25
2017-11-30T12:14:34.363Z,5.46
2017-11-30T12:15:34.353Z,5.59
2017-11-30T12:15:46.357Z,0.21
2017-11-30T12:17:34.332Z,5.68
2017-11-30T12:18:34.328Z,5.66
2017-11-30T12:19:34.322Z,5.33
2017-11-30T12:20:34.312Z,5.40
2017-11-30T12:21:34.296Z,5.26
2017-11-30T12:22:34.291Z,5.17
2017-11-30T12:23:34.286Z,4.99
2017-11-30T12:24:34.276Z,4.98
2017-11-30T12:25:34.266Z,5.07
2017-11-30T12:26:34.259Z,5.26
2017-11-30T12:27:34.249Z,4.56
2017-11-30T12:28:34.256Z,4.52
2017-11-30T12:29:34.231Z,4.60
2017-11-30T12:30:34.221Z,4.60
2017-11-30T12:31:34.214Z,4.52
2017-11-30T12:32:34.205Z,4.50
2017-11-30T12:33:34.193Z,5.05
2017-11-30T12:34:34.186Z,9.19
2017-11-30T12:35:34.179Z,6.82
2017-11-30T12:36:34.170Z,5.72
2017-11-30T12:37:34.162Z,4.68
2017-11-30T12:38:34.154Z,4.70
2017-11-30T12:39:34.142Z,4.32
2017-11-30T12:40:34.139Z,4.15
2017-11-30T12:41:34.126Z,4.17
2017-11-30T12:42:34.119Z,3.96
2017-11-30T12:43:34.111Z,4.06
2017-11-30T12:44:34.090Z,3.89
2017-11-30T12:45:34.091Z,3.94
2017-11-30T12:46:34.082Z,3.66
2017-11-30T12:47:34.077Z,3.85
2017-11-30T12:48:34.085Z,3.63
2017-11-30T12:49:34.059Z,3.30
2017-11-30T12:50:34.050Z,3.64
2017-11-30T12:51:34.050Z,3.82
2017-11-30T12:52:34.040Z,3.76
2017-11-30T12:53:34.020Z,4.08
2017-11-30T12:54:34.017Z,4.10
2017-11-30T12:55:34.010Z,4.01